Time;durP1;ratioP1;P1;durP2;ratioP2;P2;SDS_P1;SDS_P2;PMS_P1;PMS_P2;Temp;Humidity;BMP_temperature;BMP_pressure;BME280_temperature;BME280_humidity;BME280_pressure;Samples;Min_cycle;Max_cycle;Signal;HPM_P1;HPM_P2
2024/02/19 00:01:07;;;;;;;7.10;4.10;;;;;;;-1.92;81.80;96610.06;106597;1273;22574;-71
2024/02/19 00:03:47;;;;;;;7.20;3.90;;;;;;;-2.00;81.49;96609.00;106090;1276;719237;-72
2024/02/19 00:06:16;;;;;;;13.10;8.30;;;;;;;-2.16;80.88;96610.52;106652;1276;25220;-71
2024/02/19 00:08:44;;;;;;;16.90;9.60;;;;;;;-2.31;81.22;96609.98;106565;1276;24233;-71
2024/02/19 00:11:13;;;;;;;21.40;12.30;;;;;;;-2.41;81.49;96610.21;106599;1276;24398;-71
2024/02/19 00:13:43;;;;;;;17.70;9.90;;;;;;;-2.50;81.94;96612.23;106665;1276;24265;-71
2024/02/19 00:16:12;;;;;;;10.30;6.10;;;;;;;-2.62;82.08;96609.22;106617;1276;22774;-72
2024/02/19 00:18:40;;;;;;;8.20;4.60;;;;;;;-2.73;82.00;96613.17;106595;1276;24249;-71
2024/02/19 00:21:09;;;;;;;5.50;3.80;;;;;;;-2.74;82.59;96609.84;106687;1276;25625;-71
2024/02/19 00:23:38;;;;;;;5.60;3.60;;;;;;;-2.76;82.69;96608.54;106630;1276;22640;-71
2024/02/19 00:26:06;;;;;;;6.10;3.80;;;;;;;-2.80;82.97;96604.91;106413;1276;23877;-71
2024/02/19 00:28:35;;;;;;;6.20;4.10;;;;;;;-2.81;83.28;96601.59;106675;1276;22531;-71
2024/02/19 00:31:03;;;;;;;6.50;4.00;;;;;;;-2.88;83.03;96601.26;106597;1276;22527;-71
2024/02/19 00:33:31;;;;;;;5.40;3.80;;;;;;;-2.92;82.93;96598.98;106650;1276;25239;-71
2024/02/19 00:36:00;;;;;;;6.80;4.30;;;;;;;-2.91;82.91;96599.20;106614;1276;25473;-71
2024/02/19 00:38:28;;;;;;;6.40;3.80;;;;;;;-2.89;82.77;96596.39;106629;1276;22590;-69
2024/02/19 00:40:57;;;;;;;5.90;4.20;;;;;;;-2.90;82.26;96592.89;106688;1276;25284;-72
2024/02/19 00:43:25;;;;;;;6.50;3.90;;;;;;;-2.91;82.27;96587.32;106585;1276;25315;-69
2024/02/19 00:45:54;;;;;;;6.30;3.80;;;;;;;-2.94;82.18;96587.67;106581;1276;24289;-70
2024/02/19 00:48:22;;;;;;;3.70;3.00;;;;;;;-3.04;81.91;96586.85;106598;1276;22553;-69
2024/02/19 00:50:50;;;;;;;5.70;3.40;;;;;;;-3.09;81.87;96584.70;106623;1276;22585;-69
2024/02/19 00:53:18;;;;;;;7.50;4.30;;;;;;;-3.15;82.94;96584.61;106627;1276;22531;-69
2024/02/19 00:55:47;;;;;;;5.70;3.80;;;;;;;-3.19;82.78;96583.50;106497;1276;22645;-69
2024/02/19 00:58:18;;;;;;;5.60;4.10;;;;;;;-3.20;82.50;96582.96;106598;1276;24228;-69
2024/02/19 01:00:46;;;;;;;5.30;3.80;;;;;;;-3.19;83.22;96580.39;106598;1276;22947;-70
2024/02/19 01:03:16;;;;;;;7.00;3.90;;;;;;;-3.25;82.59;96580.81;106639;1276;22516;-70
2024/02/19 01:05:45;;;;;;;8.60;5.40;;;;;;;-3.23;82.82;96579.35;106673;1276;23918;-70
2024/02/19 01:08:13;;;;;;;8.70;4.60;;;;;;;-3.21;82.85;96577.76;106460;1276;22524;-70
2024/02/19 01:10:41;;;;;;;7.30;4.50;;;;;;;-3.22;82.61;96576.81;106650;1276;25349;-70
2024/02/19 01:13:10;;;;;;;6.70;4.50;;;;;;;-3.23;82.62;96571.80;106606;1276;24066;-70
2024/02/19 01:15:38;;;;;;;8.30;3.90;;;;;;;-3.19;82.83;96573.73;106640;1276;24261;-70
2024/02/19 01:18:06;;;;;;;8.20;4.40;;;;;;;-3.15;83.03;96569.27;106602;1276;24367;-70
2024/02/19 01:20:36;;;;;;;5.20;3.60;;;;;;;-3.18;82.66;96567.56;106689;1276;22532;-70
2024/02/19 01:23:04;;;;;;;5.70;3.60;;;;;;;-3.19;82.77;96566.13;106774;1276;22511;-70
2024/02/19 01:25:34;;;;;;;6.00;3.60;;;;;;;-3.18;82.83;96563.46;106601;1276;22600;-70
2024/02/19 01:28:02;;;;;;;6.90;3.80;;;;;;;-3.22;82.65;96561.55;106550;1276;25321;-70
2024/02/19 01:30:31;;;;;;;5.50;3.40;;;;;;;-3.22;82.94;96562.37;106698;1273;26777;-70
2024/02/19 01:33:01;;;;;;;6.00;3.10;;;;;;;-3.21;83.00;96560.54;106461;1276;24206;-70
2024/02/19 01:35:30;;;;;;;7.10;4.00;;;;;;;-3.15;83.46;96560.17;106605;1276;22535;-70
2024/02/19 01:37:58;;;;;;;6.60;3.50;;;;;;;-3.13;83.00;96556.09;106619;1276;22652;-72
2024/02/19 01:40:26;;;;;;;6.00;3.70;;;;;;;-3.13;83.23;96554.05;106435;1276;22534;-70
2024/02/19 01:43:02;;;;;;;7.80;4.10;;;;;;;-3.09;83.40;96556.48;106625;1276;24205;-71
2024/02/19 01:45:31;;;;;;;5.70;3.10;;;;;;;-3.15;82.52;96557.25;106651;1276;22897;-70
2024/02/19 01:48:00;;;;;;;5.00;3.20;;;;;;;-3.18;83.23;96553.80;106788;1276;22572;-70
2024/02/19 01:50:30;;;;;;;4.70;3.00;;;;;;;-3.11;83.72;96558.11;106661;1276;25212;-71
2024/02/19 01:53:02;;;;;;;6.20;3.80;;;;;;;-3.00;83.54;96554.33;106653;1276;25322;-70
2024/02/19 01:55:32;;;;;;;5.10;3.30;;;;;;;-2.97;82.96;96554.14;106655;1260;24412;-70
2024/02/19 01:58:01;;;;;;;6.50;3.80;;;;;;;-2.97;82.66;96550.52;106625;1276;22785;-70
2024/02/19 02:00:33;;;;;;;7.30;4.30;;;;;;;-3.00;81.96;96545.21;106606;1276;25429;-70
2024/02/19 02:03:02;;;;;;;5.10;3.40;;;;;;;-3.10;81.62;96545.42;106690;1276;24237;-70
2024/02/19 02:05:31;;;;;;;6.10;3.10;;;;;;;-3.10;82.40;96540.59;106734;1273;25442;-70
2024/02/19 02:08:02;;;;;;;6.20;3.40;;;;;;;-3.07;82.43;96538.88;106653;1276;22649;-70
2024/02/19 02:10:31;;;;;;;4.90;2.80;;;;;;;-3.16;81.93;96541.01;106658;1276;24057;-70
2024/02/19 02:13:00;;;;;;;4.60;2.60;;;;;;;-3.24;81.79;96534.77;106643;1276;22523;-70
2024/02/19 02:15:28;;;;;;;4.60;3.00;;;;;;;-3.29;81.85;96534.84;106609;1276;22533;-70
2024/02/19 02:17:56;;;;;;;2.90;2.40;;;;;;;-3.29;82.25;96530.22;106627;1276;25437;-70
2024/02/19 02:20:26;;;;;;;4.50;2.40;;;;;;;-3.36;82.21;96531.40;106627;1276;23687;-70
2024/02/19 02:22:56;;;;;;;6.80;3.80;;;;;;;-3.46;81.94;96526.42;106607;1276;22524;-70
2024/02/19 02:25:25;;;;;;;4.70;3.60;;;;;;;-3.49;82.92;96520.11;106677;1276;25395;-70
2024/02/19 02:27:53;;;;;;;5.60;3.10;;;;;;;-3.53;83.00;96520.44;106624;1276;24272;-70
2024/02/19 02:30:21;;;;;;;6.50;4.60;;;;;;;-3.58;83.41;96521.86;106618;1276;24374;-70
2024/02/19 02:32:55;;;;;;;7.80;4.50;;;;;;;-3.65;83.53;96519.46;106696;1276;23978;-70
2024/02/19 02:35:23;;;;;;;;;;;;;;;-3.68;83.50;96519.80;106705;1276;23868;-70
2024/02/19 02:37:52;;;;;;;7.80;3.10;;;;;;;-3.66;83.46;96519.22;106755;1276;22534;-70
2024/02/19 02:40:20;;;;;;;5.00;3.40;;;;;;;-3.64;83.28;96517.59;106664;1276;23110;-70
2024/02/19 02:42:49;;;;;;;7.80;4.60;;;;;;;-3.70;83.02;96513.88;106750;1276;24305;-70
2024/02/19 02:45:17;;;;;;;5.30;3.10;;;;;;;-3.71;82.99;96512.28;106609;1276;24672;-70
2024/02/19 02:47:46;;;;;;;4.30;2.80;;;;;;;-3.69;83.25;96511.34;106624;1276;22524;-70
2024/02/19 02:50:14;;;;;;;6.40;3.40;;;;;;;-3.72;83.49;96514.48;106626;1276;24256;-70
2024/02/19 02:52:42;;;;;;;5.50;4.10;;;;;;;-3.72;83.37;96511.56;106632;1276;22763;-70
2024/02/19 02:55:11;;;;;;;8.80;5.40;;;;;;;-3.70;83.44;96512.02;106647;1276;22582;-70
2024/02/19 02:57:39;;;;;;;8.00;5.00;;;;;;;-3.71;83.58;96510.42;106588;1276;24271;-70
2024/02/19 03:00:08;;;;;;;6.70;3.50;;;;;;;-3.74;83.59;96510.09;106623;1276;22660;-70
2024/02/19 03:02:37;;;;;;;13.20;6.40;;;;;;;-3.74;83.49;96515.06;106757;1276;25379;-70
2024/02/19 03:05:05;;;;;;;14.40;7.80;;;;;;;-3.77;83.89;96515.59;106651;1276;24304;-69
2024/02/19 03:07:34;;;;;;;12.90;7.60;;;;;;;-3.83;84.13;96515.64;106637;1276;22593;-69
2024/02/19 03:10:03;;;;;;;14.30;7.50;;;;;;;-3.90;83.69;96514.95;106622;1276;22521;-69
2024/02/19 03:12:31;;;;;;;13.30;8.00;;;;;;;-4.01;83.94;96516.25;106614;1276;25356;-70
2024/02/19 03:14:59;;;;;;;24.50;13.50;;;;;;;-4.03;83.79;96513.20;106676;1276;24199;-70
2024/02/19 03:17:28;;;;;;;7.20;4.40;;;;;;;-4.02;83.99;96510.73;106625;1276;22521;-70
2024/02/19 03:19:57;;;;;;;7.70;4.60;;;;;;;-3.97;84.14;96511.83;106621;1276;22642;-70
2024/02/19 03:22:25;;;;;;;6.00;4.30;;;;;;;-3.90;84.23;96514.41;106692;1276;22530;-70
2024/02/19 03:24:54;;;;;;;10.00;4.80;;;;;;;-3.82;84.36;96515.70;106693;1276;22536;-70
2024/02/19 03:27:22;;;;;;;7.40;3.70;;;;;;;-3.73;84.38;96508.91;106674;1276;22539;-70
2024/02/19 03:29:51;;;;;;;10.50;6.20;;;;;;;-3.65;84.23;96510.33;106490;1276;22939;-70
2024/02/19 03:32:19;;;;;;;25.00;13.20;;;;;;;-3.74;83.25;96508.35;106610;1276;23901;-70
2024/02/19 03:34:47;;;;;;;9.90;5.40;;;;;;;-3.82;83.06;96505.38;106604;1276;25413;-70
2024/02/19 03:37:15;;;;;;;7.80;4.20;;;;;;;-3.85;83.41;96504.02;106447;1276;25416;-70
2024/02/19 03:39:47;;;;;;;5.30;3.30;;;;;;;-3.82;83.70;96502.80;106591;1276;22539;-70
2024/02/19 03:42:15;;;;;;;4.60;3.40;;;;;;;-3.67;84.63;96502.17;106590;1276;22536;-70
2024/02/19 03:44:44;;;;;;;4.40;3.00;;;;;;;-3.58;84.19;96503.00;106697;1276;24330;-70
2024/02/19 03:47:12;;;;;;;7.10;3.60;;;;;;;-3.48;83.92;96501.92;106560;1263;25499;-70
2024/02/19 03:49:40;;;;;;;12.00;6.20;;;;;;;-3.44;83.69;96499.67;106782;1276;23896;-70
2024/02/19 03:52:09;;;;;;;6.90;4.30;;;;;;;-3.41;83.11;96499.48;106626;1276;24209;-70
2024/02/19 03:54:37;;;;;;;7.50;4.50;;;;;;;-3.45;82.84;96502.38;106583;1276;23104;-70
2024/02/19 03:57:05;;;;;;;7.50;4.40;;;;;;;-3.50;82.61;96502.69;106730;1276;22530;-70
2024/02/19 03:59:34;;;;;;;6.10;3.50;;;;;;;-3.52;82.71;96500.54;106683;1276;25298;-70
2024/02/19 04:02:03;;;;;;;5.60;3.50;;;;;;;-3.45;83.06;96496.02;106445;1276;22737;-70
2024/02/19 04:04:31;;;;;;;5.40;3.50;;;;;;;-3.44;83.02;96496.61;106687;1276;24312;-70
2024/02/19 04:06:59;;;;;;;4.50;3.20;;;;;;;-3.46;82.62;96497.84;106603;1276;25220;-70
2024/02/19 04:09:28;;;;;;;8.40;5.30;;;;;;;-3.54;82.74;96494.59;106576;1276;24307;-70
2024/02/19 04:11:56;;;;;;;5.90;3.50;;;;;;;-3.63;82.29;96491.35;106665;1260;22659;-70
2024/02/19 04:14:25;;;;;;;10.30;5.80;;;;;;;-3.72;82.85;96493.15;106621;1276;22532;-70
2024/02/19 04:16:53;;;;;;;11.50;6.70;;;;;;;-3.78;82.27;96489.58;106676;1276;22795;-70
2024/02/19 04:19:27;;;;;;;7.90;4.60;;;;;;;-3.89;82.09;96488.67;106669;1276;22702;-70
2024/02/19 04:21:55;;;;;;;7.60;4.50;;;;;;;-3.98;82.73;96491.68;106697;1276;25409;-71
2024/02/19 04:24:24;;;;;;;5.40;3.60;;;;;;;-4.03;82.67;96492.41;106641;1276;22549;-70
2024/02/19 04:26:52;;;;;;;5.60;3.20;;;;;;;-4.02;83.19;96487.70;106581;1276;24211;-71
2024/02/19 04:29:20;;;;;;;5.90;3.80;;;;;;;-4.01;83.62;96494.79;106453;1276;22622;-70
2024/02/19 04:31:48;;;;;;;6.80;4.20;;;;;;;-4.00;83.67;96483.66;106631;1276;22590;-71
2024/02/19 04:34:17;;;;;;;6.30;3.60;;;;;;;-4.00;84.11;96485.54;106607;1276;22537;-70
2024/02/19 04:36:45;;;;;;;5.80;3.60;;;;;;;-4.05;83.76;96486.83;106585;1276;24281;-70
2024/02/19 04:39:14;;;;;;;5.40;3.70;;;;;;;-4.04;83.61;96487.38;106649;1276;24279;-70
2024/02/19 04:41:42;;;;;;;7.80;3.80;;;;;;;-4.02;83.76;96486.66;106631;1276;22634;-70
2024/02/19 04:44:10;;;;;;;9.60;5.50;;;;;;;-3.98;83.74;96483.91;106639;1276;23169;-71
2024/02/19 04:46:38;;;;;;;9.30;5.50;;;;;;;-3.96;83.85;96481.44;106687;1276;22546;-71
2024/02/19 04:49:07;;;;;;;7.60;5.00;;;;;;;-3.99;83.90;96485.06;106595;1276;24206;-71
2024/02/19 04:51:35;;;;;;;10.90;6.20;;;;;;;-4.08;83.56;96480.32;106452;1276;22642;-71
2024/02/19 04:54:04;;;;;;;10.80;6.10;;;;;;;-4.14;83.35;96482.95;106635;1276;22530;-70
2024/02/19 04:56:32;;;;;;;10.00;4.90;;;;;;;-4.17;83.61;96479.86;106662;1276;22980;-70
2024/02/19 04:59:00;;;;;;;9.10;5.10;;;;;;;-4.22;84.01;96482.52;106615;1276;25315;-70
2024/02/19 05:01:32;;;;;;;6.10;3.30;;;;;;;-4.24;84.09;96477.63;106629;1276;25217;-70
2024/02/19 05:04:01;;;;;;;8.00;3.90;;;;;;;-4.25;84.13;96476.03;106647;1276;22532;-70
2024/02/19 05:06:29;;;;;;;5.40;3.90;;;;;;;-4.25;84.47;96478.77;106641;1276;24250;-70
2024/02/19 05:08:57;;;;;;;7.80;3.90;;;;;;;-4.27;84.26;96482.41;106739;1276;22640;-70
2024/02/19 05:11:26;;;;;;;6.10;3.70;;;;;;;-4.25;84.55;96478.23;106565;1276;25560;-70
2024/02/19 05:13:54;;;;;;;7.20;3.70;;;;;;;-4.29;84.91;96481.27;106651;1276;22524;-70
2024/02/19 05:16:23;;;;;;;11.10;5.60;;;;;;;-4.29;84.69;96484.34;106586;1272;22611;-70
2024/02/19 05:18:52;;;;;;;15.00;7.80;;;;;;;-4.32;84.56;96483.54;106593;1276;22650;-70
2024/02/19 05:21:21;;;;;;;11.20;5.90;;;;;;;-4.30;84.96;96486.58;106647;1276;22649;-70
2024/02/19 05:23:49;;;;;;;6.30;3.80;;;;;;;-4.25;85.29;96483.21;106703;1276;24074;-71
2024/02/19 05:26:28;;;;;;;25.60;10.70;;;;;;;-4.19;85.06;96486.64;106599;1276;22539;-71
2024/02/19 05:28:57;;;;;;;8.10;5.10;;;;;;;-4.10;85.03;96484.88;106671;1276;24411;-70
2024/02/19 05:31:33;;;;;;;14.20;6.90;;;;;;;-3.97;85.03;96481.58;106560;1276;24459;-70
2024/02/19 05:34:04;;;;;;;11.70;6.60;;;;;;;-3.85;85.53;96483.92;106669;1276;24413;-70
2024/02/19 05:36:32;;;;;;;16.70;7.10;;;;;;;-3.76;85.35;96482.63;106622;1276;23850;-70
2024/02/19 05:39:01;;;;;;;18.60;9.10;;;;;;;-3.68;84.93;96480.27;106664;1276;25361;-71
2024/02/19 05:41:29;;;;;;;20.80;11.30;;;;;;;-3.63;84.25;96480.38;106587;1253;22702;-70
2024/02/19 05:43:58;;;;;;;18.40;9.80;;;;;;;-3.55;84.19;96478.52;106763;1276;24378;-70
2024/02/19 05:46:26;;;;;;;17.20;8.70;;;;;;;-3.42;84.45;96480.54;106593;1276;25625;-71
2024/02/19 05:48:54;;;;;;;20.30;12.00;;;;;;;-3.29;84.07;96482.23;106605;1276;22570;-70
2024/02/19 05:51:23;;;;;;;25.90;16.90;;;;;;;-3.15;83.89;96488.36;106644;1276;22660;-70
2024/02/19 05:53:51;;;;;;;22.10;12.50;;;;;;;-3.02;83.73;96483.84;106659;1276;25263;-70
2024/02/19 05:56:19;;;;;;;36.00;19.20;;;;;;;-2.93;83.34;96486.85;106667;1276;24380;-71
2024/02/19 05:58:47;;;;;;;23.70;11.50;;;;;;;-2.89;83.23;96483.25;106652;1276;24294;-70
2024/02/19 06:01:16;;;;;;;75.90;32.60;;;;;;;-2.84;83.28;96484.52;106522;1276;22527;-71
2024/02/19 06:03:45;;;;;;;75.20;33.20;;;;;;;-2.75;83.38;96479.29;106679;1276;25383;-70
2024/02/19 06:06:14;;;;;;;71.40;33.50;;;;;;;-2.61;83.92;96475.95;106606;1276;25322;-71
2024/02/19 06:08:42;;;;;;;70.50;32.00;;;;;;;-2.44;83.65;96472.59;106653;1276;24360;-71
2024/02/19 06:11:11;;;;;;;54.40;24.50;;;;;;;-2.40;83.34;96471.21;106648;1276;22566;-71
2024/02/19 06:13:39;;;;;;;25.10;13.10;;;;;;;-2.30;83.65;96470.79;106695;1276;22656;-70
2024/02/19 06:16:07;;;;;;;33.60;18.50;;;;;;;-2.17;83.76;96472.23;106600;1276;22608;-70
2024/02/19 06:18:36;;;;;;;17.60;9.90;;;;;;;-2.03;83.58;96468.70;106376;1276;25498;-71
2024/02/19 06:21:04;;;;;;;23.00;12.90;;;;;;;-1.94;83.25;96473.77;106618;1276;24349;-71
2024/02/19 06:23:32;;;;;;;25.80;14.90;;;;;;;-1.87;82.75;96472.35;106619;1276;24328;-71
2024/02/19 06:26:01;;;;;;;25.10;13.60;;;;;;;-1.82;82.47;96475.34;106608;1276;22549;-71
2024/02/19 06:28:29;;;;;;;30.00;15.70;;;;;;;-1.78;82.38;96479.46;106570;1276;24200;-71
2024/02/19 06:30:57;;;;;;;44.70;21.00;;;;;;;-1.74;82.29;96474.98;106596;1276;22538;-71
2024/02/19 06:33:26;;;;;;;59.20;26.40;;;;;;;-1.68;82.47;96476.59;106675;1276;24294;-71
2024/02/19 06:35:54;;;;;;;77.50;28.70;;;;;;;-1.65;82.36;96472.23;106666;1269;22544;-71
2024/02/19 06:38:22;;;;;;;107.00;43.30;;;;;;;-1.66;82.16;96474.27;106606;1276;25952;-72
2024/02/19 06:40:52;;;;;;;103.60;40.60;;;;;;;-1.60;82.51;96472.09;106621;1276;22542;-71
2024/02/19 06:43:20;;;;;;;97.00;38.60;;;;;;;-1.51;82.53;96472.63;106583;1263;24252;-71
2024/02/19 06:45:48;;;;;;;77.10;32.90;;;;;;;-1.44;82.62;96471.39;106697;1276;24423;-71
2024/02/19 06:48:17;;;;;;;120.60;48.60;;;;;;;-1.35;82.77;96468.64;106602;1276;22604;-72
2024/02/19 06:50:45;;;;;;;99.80;43.00;;;;;;;-1.21;83.44;96468.73;106588;1276;24378;-71
2024/02/19 06:53:13;;;;;;;60.00;29.10;;;;;;;-1.03;83.50;96462.35;106752;1276;22758;-71
2024/02/19 06:55:41;;;;;;;42.20;19.90;;;;;;;-0.84;83.72;96456.53;106651;1276;25318;-71
2024/02/19 06:58:10;;;;;;;29.00;14.80;;;;;;;-0.65;83.49;96452.60;106633;1276;25468;-72
2024/02/19 07:00:39;;;;;;;20.20;11.70;;;;;;;-0.47;83.78;96450.87;106482;1276;24210;-71
2024/02/19 07:03:08;;;;;;;23.30;13.10;;;;;;;-0.30;83.30;96450.63;106672;1276;25322;-71
2024/02/19 07:05:36;;;;;;;19.80;12.00;;;;;;;-0.15;83.02;96450.30;106643;1276;24715;-71
2024/02/19 07:08:05;;;;;;;14.70;8.90;;;;;;;-0.02;82.39;96448.04;106678;1276;24335;-71
2024/02/19 07:10:33;;;;;;;18.70;11.20;;;;;;;0.15;81.90;96451.55;106616;1272;24326;-71
2024/02/19 07:13:02;;;;;;;16.20;9.50;;;;;;;0.34;81.75;96444.96;106593;1276;22581;-72
2024/02/19 07:15:30;;;;;;;12.30;7.60;;;;;;;0.54;80.95;96438.70;106636;1276;22603;-72
2024/02/19 07:17:58;;;;;;;12.30;7.20;;;;;;;0.69;79.77;96433.15;106635;1276;22536;-72
2024/02/19 07:20:27;;;;;;;12.20;7.10;;;;;;;0.78;78.92;96435.55;106635;1276;22519;-72
2024/02/19 07:22:55;;;;;;;15.80;8.50;;;;;;;0.92;79.13;96426.25;106609;1276;24279;-72
2024/02/19 07:25:23;;;;;;;11.00;7.40;;;;;;;1.15;79.60;96423.02;106603;1276;22704;-72
2024/02/19 07:27:52;;;;;;;10.60;6.60;;;;;;;1.40;78.82;96414.75;106636;1276;22530;-72
2024/02/19 07:30:20;;;;;;;11.40;6.60;;;;;;;1.64;78.37;96412.69;106628;1276;22792;-72
2024/02/19 07:32:48;;;;;;;10.40;6.60;;;;;;;1.85;77.43;96411.53;106620;1276;23160;-72
2024/02/19 07:35:17;;;;;;;13.40;7.50;;;;;;;2.08;77.46;96400.72;106671;1276;23009;-72
2024/02/19 07:37:46;;;;;;;12.10;7.10;;;;;;;2.26;77.26;96400.52;106642;1276;22526;-72
2024/02/19 07:40:14;;;;;;;13.90;7.70;;;;;;;2.44;76.60;96401.50;106583;1276;24249;-72
2024/02/19 07:42:42;;;;;;;12.00;7.90;;;;;;;2.54;75.27;96395.16;106710;1276;24387;-72
2024/02/19 07:45:11;;;;;;;13.40;6.70;;;;;;;2.74;75.12;96391.12;106603;1276;22534;-73
2024/02/19 07:47:39;;;;;;;14.50;6.60;;;;;;;2.90;74.65;96389.61;106578;1276;22532;-72
2024/02/19 07:50:08;;;;;;;9.80;6.10;;;;;;;3.06;73.65;96389.48;106773;1276;25223;-73
2024/02/19 07:52:37;;;;;;;9.70;6.00;;;;;;;3.25;72.61;96386.77;106656;1276;24062;-74
2024/02/19 07:55:06;;;;;;;12.30;6.70;;;;;;;3.39;71.16;96382.39;106595;1276;22578;-73
2024/02/19 07:57:34;;;;;;;13.10;6.70;;;;;;;3.58;72.11;96385.05;106682;1275;25269;-73
2024/02/19 08:00:05;;;;;;;12.90;7.60;;;;;;;3.73;72.20;96380.13;106692;1275;22548;-73
2024/02/19 08:02:33;;;;;;;16.00;7.60;;;;;;;3.86;72.07;96381.27;106782;1275;22607;-73
2024/02/19 08:05:01;;;;;;;13.80;7.50;;;;;;;4.01;71.33;96381.20;106636;1275;22795;-73
2024/02/19 08:07:30;;;;;;;17.60;8.20;;;;;;;4.15;70.19;96378.86;106678;1275;22524;-73
2024/02/19 08:09:58;;;;;;;11.10;6.50;;;;;;;4.28;69.18;96372.66;106714;1275;22545;-73
2024/02/19 08:12:27;;;;;;;9.40;5.80;;;;;;;4.47;69.86;96371.08;106587;1275;22537;-73
2024/02/19 08:14:57;;;;;;;10.30;5.30;;;;;;;4.71;68.80;96362.60;106640;1275;24233;-73
2024/02/19 08:17:25;;;;;;;7.90;5.10;;;;;;;4.92;68.99;96357.36;106760;1275;25406;-73
2024/02/19 08:19:54;;;;;;;7.20;4.30;;;;;;;5.13;68.09;96349.31;106677;1275;22878;-73
2024/02/19 08:22:23;;;;;;;6.90;4.60;;;;;;;5.28;66.99;96354.23;106633;1275;22526;-73
2024/02/19 08:24:51;;;;;;;7.30;4.50;;;;;;;5.45;67.24;96356.90;106766;1275;22534;-73
2024/02/19 08:27:19;;;;;;;11.00;6.10;;;;;;;5.66;67.00;96355.95;106645;1275;25220;-73
2024/02/19 08:29:47;;;;;;;8.60;5.50;;;;;;;5.83;66.42;96350.75;106647;1275;22545;-73
2024/02/19 08:32:16;;;;;;;8.10;5.00;;;;;;;5.96;66.72;96349.00;106616;1275;22537;-73
2024/02/19 08:34:44;;;;;;;7.80;5.60;;;;;;;6.10;65.63;96346.72;106684;1272;24227;-73
2024/02/19 08:37:17;;;;;;;11.00;6.30;;;;;;;6.21;64.52;96342.65;106710;1275;22553;-73
2024/02/19 08:39:47;;;;;;;13.00;9.30;;;;;;;6.35;64.67;96348.39;106565;1275;23021;-73
2024/02/19 08:42:15;;;;;;;14.00;9.20;;;;;;;6.44;62.92;96345.34;106671;1269;22511;-73
2024/02/19 08:44:45;;;;;;;18.50;11.50;;;;;;;6.50;62.88;96344.33;106671;1275;22643;-73
2024/02/19 08:47:13;;;;;;;17.50;10.50;;;;;;;6.51;62.66;96343.48;106617;1275;22532;-73
2024/02/19 08:49:41;;;;;;;16.10;10.30;;;;;;;6.44;62.19;96345.33;106631;1275;22531;-73
2024/02/19 08:52:10;;;;;;;15.00;9.30;;;;;;;6.46;62.24;96341.33;106715;1275;24270;-73
2024/02/19 08:54:38;;;;;;;12.40;8.40;;;;;;;6.51;61.16;96335.27;106711;1275;24228;-72
2024/02/19 08:57:06;;;;;;;11.00;7.50;;;;;;;6.53;61.12;96334.05;106660;1276;24374;-73
2024/02/19 08:59:35;;;;;;;12.90;8.70;;;;;;;6.57;61.33;96331.65;106692;1272;22519;-73
2024/02/19 09:02:03;;;;;;;13.10;9.20;;;;;;;6.50;60.78;96332.63;106647;1276;22631;-73
2024/02/19 09:04:32;;;;;;;13.80;8.90;;;;;;;6.46;60.99;96332.23;106614;1275;26494;-73
2024/02/19 09:07:00;;;;;;;14.20;9.00;;;;;;;6.49;61.12;96328.09;106714;1275;25321;-72
2024/02/19 09:09:29;;;;;;;11.70;7.30;;;;;;;6.45;61.43;96324.71;106674;1275;22639;-73
2024/02/19 09:11:57;;;;;;;10.90;7.90;;;;;;;6.47;60.78;96317.06;106637;1275;22522;-72
2024/02/19 09:14:28;;;;;;;11.90;8.30;;;;;;;6.46;61.10;96321.77;106531;1275;22599;-72
2024/02/19 09:16:57;;;;;;;17.30;11.80;;;;;;;6.48;61.48;96318.10;106643;1275;22533;-72
2024/02/19 09:19:25;;;;;;;17.20;10.20;;;;;;;6.47;61.87;96312.84;106619;1275;22536;-73
2024/02/19 09:21:53;;;;;;;21.60;12.70;;;;;;;6.46;61.52;96318.61;106730;1275;22671;-73
2024/02/19 09:24:22;;;;;;;18.80;11.30;;;;;;;6.44;61.59;96314.75;106763;1275;22689;-73
2024/02/19 09:26:51;;;;;;;15.00;9.50;;;;;;;6.40;61.71;96308.59;106777;1275;26612;-73
2024/02/19 09:29:19;;;;;;;12.70;8.60;;;;;;;6.42;61.33;96310.36;106681;1275;22534;-73
2024/02/19 09:31:48;;;;;;;10.70;7.80;;;;;;;6.47;61.04;96310.94;106676;1275;22618;-73
2024/02/19 09:34:16;;;;;;;12.70;9.20;;;;;;;6.56;61.03;96306.64;106716;1264;24304;-73
2024/02/19 09:36:45;;;;;;;10.50;7.80;;;;;;;6.68;61.40;96297.81;106692;1263;24272;-73
2024/02/19 09:39:14;;;;;;;12.60;8.90;;;;;;;6.81;60.66;96296.86;106694;1275;24421;-73
2024/02/19 09:41:42;;;;;;;12.50;9.10;;;;;;;6.92;59.98;96296.41;106695;1275;22653;-72
2024/02/19 09:44:11;;;;;;;13.00;9.00;;;;;;;7.05;60.27;96295.98;106665;1275;25325;-73
2024/02/19 09:46:41;;;;;;;12.30;7.70;;;;;;;7.28;60.09;96290.51;106595;1275;24198;-73
2024/02/19 09:49:11;;;;;;;16.70;10.30;;;;;;;7.49;59.55;96288.88;106722;1275;22551;-73
2024/02/19 09:51:48;;;;;;;26.40;13.10;;;;;;;7.69;57.81;96283.35;106685;1275;24367;-73
2024/02/19 09:54:17;;;;;;;9.10;6.40;;;;;;;7.84;56.74;96273.59;106660;1275;22544;-73
2024/02/19 09:56:45;;;;;;;9.80;5.60;;;;;;;8.02;56.29;96269.09;106630;1275;22524;-73
2024/02/19 09:59:15;;;;;;;9.00;6.00;;;;;;;8.17;56.37;96269.98;106614;1275;25275;-73
2024/02/19 10:01:44;;;;;;;5.40;3.90;;;;;;;8.32;52.46;96270.02;106702;1275;24173;-73
2024/02/19 10:04:14;;;;;;;4.90;3.80;;;;;;;8.36;51.49;96266.70;106643;1275;22540;-73
2024/02/19 10:06:43;;;;;;;4.40;3.50;;;;;;;8.50;51.14;96265.31;106639;1275;23900;-72
2024/02/19 10:09:14;;;;;;;5.10;4.10;;;;;;;8.56;50.96;96259.02;106728;1275;22520;-73
2024/02/19 10:11:43;;;;;;;6.10;3.80;;;;;;;8.58;50.24;96261.81;106618;1275;22772;-73
2024/02/19 10:14:11;;;;;;;4.60;3.40;;;;;;;8.74;51.02;96252.69;106665;1275;22531;-73
2024/02/19 10:16:40;;;;;;;4.90;3.80;;;;;;;8.90;49.09;96248.10;106644;1275;22617;-73
2024/02/19 10:19:08;;;;;;;4.40;3.00;;;;;;;9.04;49.03;96248.24;106629;1275;24263;-73
2024/02/19 10:21:38;;;;;;;4.20;3.70;;;;;;;9.19;49.43;96240.14;106647;1275;24354;-73
2024/02/19 10:24:06;;;;;;;6.30;3.80;;;;;;;9.26;48.66;96242.23;106625;1275;22722;-73
2024/02/19 10:26:35;;;;;;;4.10;3.50;;;;;;;9.36;48.07;96240.61;106506;1275;22527;-73
2024/02/19 10:29:03;;;;;;;3.60;3.20;;;;;;;9.53;48.29;96238.79;106595;1275;22542;-73
2024/02/19 10:31:32;;;;;;;4.00;3.60;;;;;;;9.71;46.51;96235.02;106744;1275;25400;-73
2024/02/19 10:34:00;;;;;;;4.60;3.60;;;;;;;9.93;47.18;96232.09;106611;1275;22526;-73
2024/02/19 10:36:29;;;;;;;4.70;3.50;;;;;;;10.16;46.29;96232.31;106586;1275;22655;-73
2024/02/19 10:38:58;;;;;;;3.90;3.20;;;;;;;10.07;44.70;96231.30;106678;1275;25224;-73
2024/02/19 10:41:27;;;;;;;4.60;3.40;;;;;;;10.03;46.22;96227.45;106598;1275;22529;-73
2024/02/19 10:43:56;;;;;;;4.30;3.60;;;;;;;10.54;46.13;96225.54;106651;1275;25223;-73
2024/02/19 10:46:24;;;;;;;4.20;3.40;;;;;;;11.20;46.03;96219.78;106669;1275;22576;-73
2024/02/19 10:48:55;;;;;;;3.70;3.20;;;;;;;11.84;45.20;96215.33;106734;1275;25367;-73
2024/02/19 10:51:24;;;;;;;4.70;3.00;;;;;;;12.18;42.07;96210.44;106737;1275;22539;-71
2024/02/19 10:54:03;;;;;;;5.50;3.40;;;;;;;12.30;41.10;96213.64;106681;1275;24213;-71
2024/02/19 10:56:38;;;;;;;4.10;3.70;;;;;;;11.72;40.76;96220.58;106668;1275;26506;-70
2024/02/19 10:59:11;;;;;;;4.80;3.60;;;;;;;11.43;41.67;96223.06;106692;1264;24383;-72
2024/02/19 11:01:48;;;;;;;6.10;5.20;;;;;;;11.73;42.44;96211.77;106697;1275;24385;-72
2024/02/19 11:04:20;;;;;;;7.80;5.90;;;;;;;12.29;43.51;96207.64;106639;1275;25495;-72
2024/02/19 11:06:54;;;;;;;6.70;5.30;;;;;;;12.35;42.29;96214.59;106655;1275;22526;-72
2024/02/19 11:09:32;;;;;;;11.70;7.30;;;;;;;12.47;42.97;96205.77;106702;1275;22527;-72
2024/02/19 11:12:02;;;;;;;10.40;6.90;;;;;;;12.70;42.73;96206.27;106713;1275;25391;-72
2024/02/19 11:14:34;;;;;;;8.70;6.50;;;;;;;12.82;42.78;96203.95;106703;1275;25278;-72
2024/02/19 11:17:04;;;;;;;9.60;8.10;;;;;;;12.97;42.83;96195.02;106640;1275;24268;-72
2024/02/19 11:19:38;;;;;;;7.60;6.40;;;;;;;12.98;42.21;96193.94;106687;1275;24223;-72
2024/02/19 11:22:09;;;;;;;8.10;6.10;;;;;;;12.86;42.34;96193.98;106685;1275;22542;-72
2024/02/19 11:24:40;;;;;;;8.60;7.20;;;;;;;12.88;43.34;96193.42;106653;1275;22537;-72
2024/02/19 11:27:09;;;;;;;9.00;6.70;;;;;;;12.71;42.36;96190.36;106707;1275;24389;-72
2024/02/19 11:29:38;;;;;;;8.40;6.40;;;;;;;12.46;42.50;96190.61;106613;1260;24212;-73